sensor_id;sensor_type;location;lat;lon;timestamp;temperature;humidity
68109;SHT30;54893;49.864;19.084;2022-08-30T00:05:15;12.45;89.37
68109;SHT30;54893;49.864;19.084;2022-08-30T00:10:16;12.82;89.79
68109;SHT30;54893;49.864;19.084;2022-08-30T00:15:17;12.86;90.74
68109;SHT30;54893;49.864;19.084;2022-08-30T00:20:21;12.62;90.61
68109;SHT30;54893;49.864;19.084;2022-08-30T00:25:22;12.53;90.65
68109;SHT30;54893;49.864;19.084;2022-08-30T00:30:23;12.46;89.17
68109;SHT30;54893;49.864;19.084;2022-08-30T00:35:25;12.35;90.52
68109;SHT30;54893;49.864;19.084;2022-08-30T00:40:26;12.31;89.88
68109;SHT30;54893;49.864;19.084;2022-08-30T00:45:31;12.26;92.84
68109;SHT30;54893;49.864;19.084;2022-08-30T00:50:35;12.41;94.24
68109;SHT30;54893;49.864;19.084;2022-08-30T00:55:37;12.50;94.02
68109;SHT30;54893;49.864;19.084;2022-08-30T01:00:37;12.38;93.52
68109;SHT30;54893;49.864;19.084;2022-08-30T01:05:38;12.32;92.52
68109;SHT30;54893;49.864;19.084;2022-08-30T01:10:38;12.22;90.61
68109;SHT30;54893;49.864;19.084;2022-08-30T01:15:40;12.15;92.65
68109;SHT30;54893;49.864;19.084;2022-08-30T01:20:50;12.20;93.53
68109;SHT30;54893;49.864;19.084;2022-08-30T01:25:53;12.35;90.18
68109;SHT30;54893;49.864;19.084;2022-08-30T01:30:54;12.52;93.32
68109;SHT30;54893;49.864;19.084;2022-08-30T01:36:00;12.34;94.22
68109;SHT30;54893;49.864;19.084;2022-08-30T01:41:18;12.28;94.91
68109;SHT30;54893;49.864;19.084;2022-08-30T01:46:20;12.04;93.93
68109;SHT30;54893;49.864;19.084;2022-08-30T01:51:25;11.94;95.10
68109;SHT30;54893;49.864;19.084;2022-08-30T01:56:28;11.88;95.73
68109;SHT30;54893;49.864;19.084;2022-08-30T02:01:31;11.77;95.12
68109;SHT30;54893;49.864;19.084;2022-08-30T02:06:31;11.73;95.21
68109;SHT30;54893;49.864;19.084;2022-08-30T02:11:32;11.64;95.81
68109;SHT30;54893;49.864;19.084;2022-08-30T02:16:33;11.73;95.96
68109;SHT30;54893;49.864;19.084;2022-08-30T02:21:33;11.70;95.74
68109;SHT30;54893;49.864;19.084;2022-08-30T02:26:34;11.66;94.30
68109;SHT30;54893;49.864;19.084;2022-08-30T02:31:35;11.54;94.66
68109;SHT30;54893;49.864;19.084;2022-08-30T02:36:36;11.53;96.44
68109;SHT30;54893;49.864;19.084;2022-08-30T02:41:39;11.53;96.45
68109;SHT30;54893;49.864;19.084;2022-08-30T02:46:40;11.53;95.88
68109;SHT30;54893;49.864;19.084;2022-08-30T02:51:41;11.40;95.63
68109;SHT30;54893;49.864;19.084;2022-08-30T02:56:41;11.47;95.07
68109;SHT30;54893;49.864;19.084;2022-08-30T03:01:42;11.61;94.81
68109;SHT30;54893;49.864;19.084;2022-08-30T03:06:42;11.67;94.88
68109;SHT30;54893;49.864;19.084;2022-08-30T03:11:43;11.66;95.14
68109;SHT30;54893;49.864;19.084;2022-08-30T03:16:44;11.64;95.95
68109;SHT30;54893;49.864;19.084;2022-08-30T03:21:44;11.46;95.23
68109;SHT30;54893;49.864;19.084;2022-08-30T03:26:45;11.36;94.11
68109;SHT30;54893;49.864;19.084;2022-08-30T03:31:45;11.38;92.86
68109;SHT30;54893;49.864;19.084;2022-08-30T03:36:46;11.44;94.11
68109;SHT30;54893;49.864;19.084;2022-08-30T03:41:47;11.37;94.56
68109;SHT30;54893;49.864;19.084;2022-08-30T03:46:48;11.40;96.18
68109;SHT30;54893;49.864;19.084;2022-08-30T03:51:49;11.58;96.84
68109;SHT30;54893;49.864;19.084;2022-08-30T03:56:49;11.58;96.64
68109;SHT30;54893;49.864;19.084;2022-08-30T04:01:49;11.60;96.89
68109;SHT30;54893;49.864;19.084;2022-08-30T04:06:50;11.48;96.48
68109;SHT30;54893;49.864;19.084;2022-08-30T04:11:50;11.53;96.28
68109;SHT30;54893;49.864;19.084;2022-08-30T04:16:51;11.67;96.49
68109;SHT30;54893;49.864;19.084;2022-08-30T04:21:51;11.67;91.22
68109;SHT30;54893;49.864;19.084;2022-08-30T04:26:51;11.81;91.84
68109;SHT30;54893;49.864;19.084;2022-08-30T04:31:52;11.95;91.51
68109;SHT30;54893;49.864;19.084;2022-08-30T04:36:52;12.15;92.13
68109;SHT30;54893;49.864;19.084;2022-08-30T04:41:52;12.39;91.17
68109;SHT30;54893;49.864;19.084;2022-08-30T04:46:53;12.68;92.63
68109;SHT30;54893;49.864;19.084;2022-08-30T04:51:53;12.89;91.88
68109;SHT30;54893;49.864;19.084;2022-08-30T04:56:54;13.06;91.42
68109;SHT30;54893;49.864;19.084;2022-08-30T05:01:55;13.22;91.21
68109;SHT30;54893;49.864;19.084;2022-08-30T05:06:55;13.47;91.04
68109;SHT30;54893;49.864;19.084;2022-08-30T05:11:55;13.79;89.86
68109;SHT30;54893;49.864;19.084;2022-08-30T05:16:56;14.25;89.78
68109;SHT30;54893;49.864;19.084;2022-08-30T05:21:56;14.59;88.70
68109;SHT30;54893;49.864;19.084;2022-08-30T05:26:57;14.71;88.77
68109;SHT30;54893;49.864;19.084;2022-08-30T05:31:58;14.99;87.91
68109;SHT30;54893;49.864;19.084;2022-08-30T05:36:58;15.41;86.46
68109;SHT30;54893;49.864;19.084;2022-08-30T05:41:58;15.97;85.35
68109;SHT30;54893;49.864;19.084;2022-08-30T05:46:59;15.85;85.56
68109;SHT30;54893;49.864;19.084;2022-08-30T05:51:59;16.17;84.30
68109;SHT30;54893;49.864;19.084;2022-08-30T05:56:59;16.75;83.20
68109;SHT30;54893;49.864;19.084;2022-08-30T06:02:00;16.97;82.19
68109;SHT30;54893;49.864;19.084;2022-08-30T06:07:00;17.36;81.05
68109;SHT30;54893;49.864;19.084;2022-08-30T06:12:01;17.71;80.73
68109;SHT30;54893;49.864;19.084;2022-08-30T06:17:01;17.87;80.15
68109;SHT30;54893;49.864;19.084;2022-08-30T06:22:02;18.18;78.97
68109;SHT30;54893;49.864;19.084;2022-08-30T06:27:02;18.47;78.15
68109;SHT30;54893;49.864;19.084;2022-08-30T06:32:03;18.52;78.31
68109;SHT30;54893;49.864;19.084;2022-08-30T06:37:03;18.96;77.61
68109;SHT30;54893;49.864;19.084;2022-08-30T06:42:04;19.24;75.03
68109;SHT30;54893;49.864;19.084;2022-08-30T06:47:04;19.54;75.90
68109;SHT30;54893;49.864;19.084;2022-08-30T06:52:05;19.41;75.45
68109;SHT30;54893;49.864;19.084;2022-08-30T06:57:05;19.66;74.87
68109;SHT30;54893;49.864;19.084;2022-08-30T07:02:06;19.93;74.36
68109;SHT30;54893;49.864;19.084;2022-08-30T07:07:09;20.36;73.38
68109;SHT30;54893;49.864;19.084;2022-08-30T07:12:11;20.75;72.92
68109;SHT30;54893;49.864;19.084;2022-08-30T07:17:11;20.39;71.97
68109;SHT30;54893;49.864;19.084;2022-08-30T07:22:33;20.68;71.27
68109;SHT30;54893;49.864;19.084;2022-08-30T07:27:34;20.75;70.06
68109;SHT30;54893;49.864;19.084;2022-08-30T07:32:34;21.06;69.29
68109;SHT30;54893;49.864;19.084;2022-08-30T07:37:34;21.34;69.87
68109;SHT30;54893;49.864;19.084;2022-08-30T07:42:35;21.51;69.92
68109;SHT30;54893;49.864;19.084;2022-08-30T07:47:35;21.50;68.85
68109;SHT30;54893;49.864;19.084;2022-08-30T07:52:36;21.40;67.16
68109;SHT30;54893;49.864;19.084;2022-08-30T07:57:36;21.63;67.08
68109;SHT30;54893;49.864;19.084;2022-08-30T08:02:37;21.81;67.01
68109;SHT30;54893;49.864;19.084;2022-08-30T08:07:39;21.77;65.41
68109;SHT30;54893;49.864;19.084;2022-08-30T08:12:40;22.49;66.75
68109;SHT30;54893;49.864;19.084;2022-08-30T08:17:40;22.07;66.75
68109;SHT30;54893;49.864;19.084;2022-08-30T08:22:41;22.62;65.15
68109;SHT30;54893;49.864;19.084;2022-08-30T08:27:41;22.58;64.70
68109;SHT30;54893;49.864;19.084;2022-08-30T08:32:42;22.88;64.65
68109;SHT30;54893;49.864;19.084;2022-08-30T08:37:42;22.02;64.64
68109;SHT30;54893;49.864;19.084;2022-08-30T08:43:02;21.06;67.66
68109;SHT30;54893;49.864;19.084;2022-08-30T08:48:09;20.22;69.45
68109;SHT30;54893;49.864;19.084;2022-08-30T08:53:16;21.13;68.80
68109;SHT30;54893;49.864;19.084;2022-08-30T08:58:48;22.59;65.13
68109;SHT30;54893;49.864;19.084;2022-08-30T09:03:49;21.37;66.21
68109;SHT30;54893;49.864;19.084;2022-08-30T09:08:50;20.36;67.38
68109;SHT30;54893;49.864;19.084;2022-08-30T09:13:51;20.88;66.24
68109;SHT30;54893;49.864;19.084;2022-08-30T09:18:51;21.98;64.51
68109;SHT30;54893;49.864;19.084;2022-08-30T09:23:58;22.22;66.80
68109;SHT30;54893;49.864;19.084;2022-08-30T09:28:59;21.78;63.64
68109;SHT30;54893;49.864;19.084;2022-08-30T09:34:02;21.14;66.39
68109;SHT30;54893;49.864;19.084;2022-08-30T09:39:33;21.98;65.24
68109;SHT30;54893;49.864;19.084;2022-08-30T09:44:36;22.37;65.43
68109;SHT30;54893;49.864;19.084;2022-08-30T09:49:41;22.84;62.75
68109;SHT30;54893;49.864;19.084;2022-08-30T09:54:51;22.75;62.70
68109;SHT30;54893;49.864;19.084;2022-08-30T10:05:09;23.57;59.75
68109;SHT30;54893;49.864;19.084;2022-08-30T10:10:38;23.30;59.21
68109;SHT30;54893;49.864;19.084;2022-08-30T10:36:48;23.56;61.34
68109;SHT30;54893;49.864;19.084;2022-08-30T10:42:27;23.94;60.43
68109;SHT30;54893;49.864;19.084;2022-08-30T10:52:56;24.57;59.81
68109;SHT30;54893;49.864;19.084;2022-08-30T10:58:04;24.13;61.47
68109;SHT30;54893;49.864;19.084;2022-08-30T11:03:45;24.17;60.47
68109;SHT30;54893;49.864;19.084;2022-08-30T11:13:57;22.81;62.30
68109;SHT30;54893;49.864;19.084;2022-08-30T11:19:00;22.34;63.04
68109;SHT30;54893;49.864;19.084;2022-08-30T11:24:18;22.88;61.47
68109;SHT30;54893;49.864;19.084;2022-08-30T11:29:35;22.32;63.17
68109;SHT30;54893;49.864;19.084;2022-08-30T11:44:46;24.25;60.57
68109;SHT30;54893;49.864;19.084;2022-08-30T11:50:01;24.57;58.56
68109;SHT30;54893;49.864;19.084;2022-08-30T12:10:51;21.93;63.07
68109;SHT30;54893;49.864;19.084;2022-08-30T12:31:29;23.64;58.48
68109;SHT30;54893;49.864;19.084;2022-08-30T12:36:47;23.66;58.88
68109;SHT30;54893;49.864;19.084;2022-08-30T12:41:48;22.78;61.89
68109;SHT30;54893;49.864;19.084;2022-08-30T12:46:51;22.12;63.73
68109;SHT30;54893;49.864;19.084;2022-08-30T12:51:54;21.67;64.60
68109;SHT30;54893;49.864;19.084;2022-08-30T12:57:02;23.24;59.99
68109;SHT30;54893;49.864;19.084;2022-08-30T13:07:33;24.16;57.09
68109;SHT30;54893;49.864;19.084;2022-08-30T13:12:34;24.34;57.18
68109;SHT30;54893;49.864;19.084;2022-08-30T13:17:37;24.57;56.49
68109;SHT30;54893;49.864;19.084;2022-08-30T13:22:52;24.40;57.84
68109;SHT30;54893;49.864;19.084;2022-08-30T13:28:00;24.84;56.82
68109;SHT30;54893;49.864;19.084;2022-08-30T13:33:00;24.13;55.59
68109;SHT30;54893;49.864;19.084;2022-08-30T13:38:01;24.18;56.15
68109;SHT30;54893;49.864;19.084;2022-08-30T13:43:01;24.58;56.36
68109;SHT30;54893;49.864;19.084;2022-08-30T13:48:02;25.46;56.28
68109;SHT30;54893;49.864;19.084;2022-08-30T13:53:03;24.85;55.39
68109;SHT30;54893;49.864;19.084;2022-08-30T13:58:04;24.94;55.68
68109;SHT30;54893;49.864;19.084;2022-08-30T14:03:05;25.60;55.28
68109;SHT30;54893;49.864;19.084;2022-08-30T14:08:06;25.59;55.38
68109;SHT30;54893;49.864;19.084;2022-08-30T14:13:07;25.39;55.09
68109;SHT30;54893;49.864;19.084;2022-08-30T14:18:10;25.04;55.45
68109;SHT30;54893;49.864;19.084;2022-08-30T14:23:11;25.80;54.31
68109;SHT30;54893;49.864;19.084;2022-08-30T14:28:11;25.74;55.18
68109;SHT30;54893;49.864;19.084;2022-08-30T14:33:12;26.08;54.53
68109;SHT30;54893;49.864;19.084;2022-08-30T14:38:13;30.74;47.43
68109;SHT30;54893;49.864;19.084;2022-08-30T14:43:13;32.37;42.92
68109;SHT30;54893;49.864;19.084;2022-08-30T14:48:13;29.44;43.72
68109;SHT30;54893;49.864;19.084;2022-08-30T14:53:14;26.14;55.62
68109;SHT30;54893;49.864;19.084;2022-08-30T14:58:14;24.88;56.13
68109;SHT30;54893;49.864;19.084;2022-08-30T15:03:17;24.11;57.28
68109;SHT30;54893;49.864;19.084;2022-08-30T15:08:17;24.99;53.63
68109;SHT30;54893;49.864;19.084;2022-08-30T15:13:18;29.29;44.70
68109;SHT30;54893;49.864;19.084;2022-08-30T15:18:18;31.46;45.21
68109;SHT30;54893;49.864;19.084;2022-08-30T15:23:19;32.23;43.91
68109;SHT30;54893;49.864;19.084;2022-08-30T15:28:19;32.19;42.87
68109;SHT30;54893;49.864;19.084;2022-08-30T15:33:21;31.86;43.41
68109;SHT30;54893;49.864;19.084;2022-08-30T15:38:21;30.74;41.00
68109;SHT30;54893;49.864;19.084;2022-08-30T15:43:22;32.37;44.31
68109;SHT30;54893;49.864;19.084;2022-08-30T15:48:22;31.92;44.84
68109;SHT30;54893;49.864;19.084;2022-08-30T15:53:23;32.29;45.92
68109;SHT30;54893;49.864;19.084;2022-08-30T15:58:23;31.06;47.83
68109;SHT30;54893;49.864;19.084;2022-08-30T16:03:24;29.56;51.71
68109;SHT30;54893;49.864;19.084;2022-08-30T16:08:25;25.20;56.47
68109;SHT30;54893;49.864;19.084;2022-08-30T16:13:26;24.50;56.73
68109;SHT30;54893;49.864;19.084;2022-08-30T16:18:26;23.20;59.35
68109;SHT30;54893;49.864;19.084;2022-08-30T16:23:27;22.78;59.84
68109;SHT30;54893;49.864;19.084;2022-08-30T16:28:27;22.34;60.68
68109;SHT30;54893;49.864;19.084;2022-08-30T16:33:29;22.02;61.27
68109;SHT30;54893;49.864;19.084;2022-08-30T16:38:30;21.66;62.25
68109;SHT30;54893;49.864;19.084;2022-08-30T16:43:30;21.43;61.92
68109;SHT30;54893;49.864;19.084;2022-08-30T16:48:31;21.18;64.12
68109;SHT30;54893;49.864;19.084;2022-08-30T16:53:31;20.78;65.67
68109;SHT30;54893;49.864;19.084;2022-08-30T16:58:32;20.64;64.03
68109;SHT30;54893;49.864;19.084;2022-08-30T17:03:33;20.41;65.84
68109;SHT30;54893;49.864;19.084;2022-08-30T17:08:33;20.15;66.14
68109;SHT30;54893;49.864;19.084;2022-08-30T17:13:34;19.91;64.94
68109;SHT30;54893;49.864;19.084;2022-08-30T17:18:34;19.60;68.60
68109;SHT30;54893;49.864;19.084;2022-08-30T17:23:35;19.27;71.67
68109;SHT30;54893;49.864;19.084;2022-08-30T17:28:35;19.05;69.54
68109;SHT30;54893;49.864;19.084;2022-08-30T17:33:36;18.96;67.80
68109;SHT30;54893;49.864;19.084;2022-08-30T17:38:38;18.86;68.61
68109;SHT30;54893;49.864;19.084;2022-08-30T17:43:39;18.47;71.51
68109;SHT30;54893;49.864;19.084;2022-08-30T17:48:39;18.24;72.16
68109;SHT30;54893;49.864;19.084;2022-08-30T17:53:40;18.22;71.71
68109;SHT30;54893;49.864;19.084;2022-08-30T17:58:40;18.15;72.51
68109;SHT30;54893;49.864;19.084;2022-08-30T18:03:41;18.08;72.15
68109;SHT30;54893;49.864;19.084;2022-08-30T18:08:41;18.05;72.78
68109;SHT30;54893;49.864;19.084;2022-08-30T18:13:42;17.94;75.57
68109;SHT30;54893;49.864;19.084;2022-08-30T18:18:42;17.87;74.70
68109;SHT30;54893;49.864;19.084;2022-08-30T18:23:42;17.74;77.83
68109;SHT30;54893;49.864;19.084;2022-08-30T18:28:43;17.50;79.12
68109;SHT30;54893;49.864;19.084;2022-08-30T18:33:44;17.29;78.67
68109;SHT30;54893;49.864;19.084;2022-08-30T18:38:45;17.07;78.74
68109;SHT30;54893;49.864;19.084;2022-08-30T18:43:45;16.90;80.59
68109;SHT30;54893;49.864;19.084;2022-08-30T18:48:46;16.79;78.59
68109;SHT30;54893;49.864;19.084;2022-08-30T18:53:48;16.69;78.21
68109;SHT30;54893;49.864;19.084;2022-08-30T18:58:49;16.61;79.48
68109;SHT30;54893;49.864;19.084;2022-08-30T19:03:49;16.59;77.23
68109;SHT30;54893;49.864;19.084;2022-08-30T19:08:50;16.48;77.31
68109;SHT30;54893;49.864;19.084;2022-08-30T19:13:50;16.42;78.03
68109;SHT30;54893;49.864;19.084;2022-08-30T19:18:51;16.47;79.65
68109;SHT30;54893;49.864;19.084;2022-08-30T19:23:51;16.29;81.14
68109;SHT30;54893;49.864;19.084;2022-08-30T19:28:51;16.14;81.07
68109;SHT30;54893;49.864;19.084;2022-08-30T19:33:52;16.04;81.73
68109;SHT30;54893;49.864;19.084;2022-08-30T19:38:52;15.90;82.90
68109;SHT30;54893;49.864;19.084;2022-08-30T19:43:53;15.73;80.50
68109;SHT30;54893;49.864;19.084;2022-08-30T19:48:53;15.64;83.72
68109;SHT30;54893;49.864;19.084;2022-08-30T19:53:53;15.51;83.93
68109;SHT30;54893;49.864;19.084;2022-08-30T19:58:54;15.37;84.41
68109;SHT30;54893;49.864;19.084;2022-08-30T20:03:54;15.20;85.38
68109;SHT30;54893;49.864;19.084;2022-08-30T20:08:56;15.14;84.69
68109;SHT30;54893;49.864;19.084;2022-08-30T20:13:57;15.13;85.17
68109;SHT30;54893;49.864;19.084;2022-08-30T20:18:57;15.19;83.61
68109;SHT30;54893;49.864;19.084;2022-08-30T20:23:58;15.16;83.80
68109;SHT30;54893;49.864;19.084;2022-08-30T20:29:01;15.00;82.46
68109;SHT30;54893;49.864;19.084;2022-08-30T20:34:02;14.96;88.45
68109;SHT30;54893;49.864;19.084;2022-08-30T20:39:03;15.04;83.60
68109;SHT30;54893;49.864;19.084;2022-08-30T20:44:08;15.29;87.76
68109;SHT30;54893;49.864;19.084;2022-08-30T20:49:09;15.40;85.11
68109;SHT30;54893;49.864;19.084;2022-08-30T20:54:09;15.50;86.09
68109;SHT30;54893;49.864;19.084;2022-08-30T20:59:10;15.63;86.10
68109;SHT30;54893;49.864;19.084;2022-08-30T21:04:11;15.67;88.02
68109;SHT30;54893;49.864;19.084;2022-08-30T21:09:11;15.57;84.92
68109;SHT30;54893;49.864;19.084;2022-08-30T21:14:12;15.53;82.23
68109;SHT30;54893;49.864;19.084;2022-08-30T21:19:12;15.34;84.84
68109;SHT30;54893;49.864;19.084;2022-08-30T21:24:12;15.19;89.01
68109;SHT30;54893;49.864;19.084;2022-08-30T21:29:13;15.04;84.59
68109;SHT30;54893;49.864;19.084;2022-08-30T21:34:14;14.93;87.14
68109;SHT30;54893;49.864;19.084;2022-08-30T21:39:23;14.86;86.04
68109;SHT30;54893;49.864;19.084;2022-08-30T21:44:25;14.76;86.26
68109;SHT30;54893;49.864;19.084;2022-08-30T21:49:26;14.62;86.69
68109;SHT30;54893;49.864;19.084;2022-08-30T21:54:26;14.52;86.27
68109;SHT30;54893;49.864;19.084;2022-08-30T21:59:27;14.48;87.89
68109;SHT30;54893;49.864;19.084;2022-08-30T22:04:27;14.41;89.14
68109;SHT30;54893;49.864;19.084;2022-08-30T22:09:28;14.32;89.75
68109;SHT30;54893;49.864;19.084;2022-08-30T22:14:29;14.29;86.35
68109;SHT30;54893;49.864;19.084;2022-08-30T22:19:29;14.32;85.88
68109;SHT30;54893;49.864;19.084;2022-08-30T22:24:30;14.28;87.98
68109;SHT30;54893;49.864;19.084;2022-08-30T22:29:31;14.26;89.52
68109;SHT30;54893;49.864;19.084;2022-08-30T22:34:31;14.20;89.52
68109;SHT30;54893;49.864;19.084;2022-08-30T22:39:32;14.04;87.28
68109;SHT30;54893;49.864;19.084;2022-08-30T22:44:32;14.07;88.44
68109;SHT30;54893;49.864;19.084;2022-08-30T22:49:32;13.92;88.57
68109;SHT30;54893;49.864;19.084;2022-08-30T22:54:33;13.88;85.45
68109;SHT30;54893;49.864;19.084;2022-08-30T22:59:35;13.79;86.91
68109;SHT30;54893;49.864;19.084;2022-08-30T23:04:37;13.68;89.19
68109;SHT30;54893;49.864;19.084;2022-08-30T23:09:37;13.64;88.59
68109;SHT30;54893;49.864;19.084;2022-08-30T23:14:37;13.64;86.13
68109;SHT30;54893;49.864;19.084;2022-08-30T23:19:38;13.54;87.96
68109;SHT30;54893;49.864;19.084;2022-08-30T23:24:38;13.42;88.73
68109;SHT30;54893;49.864;19.084;2022-08-30T23:29:57;13.30;91.53
68109;SHT30;54893;49.864;19.084;2022-08-30T23:35:16;13.16;92.09
68109;SHT30;54893;49.864;19.084;2022-08-30T23:40:35;13.10;92.40
68109;SHT30;54893;49.864;19.084;2022-08-30T23:45:55;13.00;92.67
68109;SHT30;54893;49.864;19.084;2022-08-30T23:51:14;12.90;92.26
68109;SHT30;54893;49.864;19.084;2022-08-30T23:56:33;12.86;90.98
